sensor_id;sensor_type;location;lat;lon;timestamp;pressure;altitude;pressure_sealevel;temperature;humidity
61740;BME280;47645;45.288;12.038;2023-02-25T00:02:47;1004.8670743726566;;;9.10703125;100
61740;BME280;47645;45.288;12.038;2023-02-25T00:12:46;1004.7422498030726;;;8.9796875;100
61740;BME280;47645;45.288;12.038;2023-02-25T00:22:47;1004.6213540012827;;;8.79609375;100
61740;BME280;47645;45.288;12.038;2023-02-25T00:32:49;1004.5829114355687;;;9.0;100
61740;BME280;47645;45.288;12.038;2023-02-25T00:42:49;1004.4624261876266;;;9.08671875;100
61740;BME280;47645;45.288;12.038;2023-02-25T00:52:48;1004.376009233501;;;9.1630859375;100
61740;BME280;47645;45.288;12.038;2023-02-25T01:02:48;1004.2993882349803;;;9.0712890625;100
61740;BME280;47645;45.288;12.038;2023-02-25T01:12:49;1004.1742673311543;;;8.8369140625;100
61740;BME280;47645;45.288;12.038;2023-02-25T01:22:49;1003.9537995661707;;;9.015234375;100
61740;BME280;47645;45.288;12.038;2023-02-25T01:32:50;1003.5414333174714;;;9.1783203125;100
61740;BME280;47645;45.288;12.038;2023-02-25T01:42:50;1003.259603598338;;;9.2701171875;100
61740;BME280;47645;45.288;12.038;2023-02-25T01:52:52;1003.0779332232154;;;9.1580078125;100
61740;BME280;47645;45.288;12.038;2023-02-25T02:02:51;1002.7799010461654;;;9.1630859375;100
61740;BME280;47645;45.288;12.038;2023-02-25T02:12:52;1002.5374645269358;;;9.0814453125;100
61740;BME280;47645;45.288;12.038;2023-02-25T02:23:02;1002.5646792790187;;;8.9541015625;100
61740;BME280;47645;45.288;12.038;2023-02-25T02:32:56;1002.4073301899027;;;8.7552734375;100
61740;BME280;47645;45.288;12.038;2023-02-25T02:43:03;1002.4326302246161;;;8.5412109375;100
61740;BME280;47645;45.288;12.038;2023-02-25T02:52:57;1002.3744668755114;;;8.6431640625;100
61740;BME280;47645;45.288;12.038;2023-02-25T03:02:56;1002.2956936851607;;;8.576953125;100
61740;BME280;47645;45.288;12.038;2023-02-25T03:12:54;1002.1906863634252;;;8.449609375;100
61740;BME280;47645;45.288;12.038;2023-02-25T03:22:57;1002.0752647254463;;;8.4341796875;100
61740;BME280;47645;45.288;12.038;2023-02-25T03:32:58;1002.0135278231365;;;8.5056640625;100
61740;BME280;47645;45.288;12.038;2023-02-25T03:43:01;1001.8994211352507;;;8.56171875;100
61740;BME280;47645;45.288;12.038;2023-02-25T03:52:57;1001.7363173925717;;;8.7146484375;100
61740;BME280;47645;45.288;12.038;2023-02-25T04:02:57;1001.9417055364376;;;8.7298828125;100
61740;BME280;47645;45.288;12.038;2023-02-25T04:12:57;1001.9559778176439;;;8.780859375;100
61740;BME280;47645;45.288;12.038;2023-02-25T04:22:58;1001.9827527005364;;;8.9591796875;100
61740;BME280;47645;45.288;12.038;2023-02-25T04:32:58;1001.8491035502504;;;9.346484375;100
61740;BME280;47645;45.288;12.038;2023-02-25T04:42:59;1001.8355866068626;;;9.4943359375;100
61740;BME280;47645;45.288;12.038;2023-02-25T04:53:00;1001.8499377007512;;;9.5708984375;100
61740;BME280;47645;45.288;12.038;2023-02-25T05:03:00;1001.9251722754752;;;9.6931640625;100
61740;BME280;47645;45.288;12.038;2023-02-25T05:13:00;1001.8731728795523;;;9.733984375;100
61740;BME280;47645;45.288;12.038;2023-02-25T05:23:01;1001.7207906173638;;;9.8255859375;100
61740;BME280;47645;45.288;12.038;2023-02-25T05:33:01;1001.6233726559191;;;9.88671875;100
61740;BME280;47645;45.288;12.038;2023-02-25T05:43:02;1001.5104414807803;;;9.9173828125;100
61740;BME280;47645;45.288;12.038;2023-02-25T05:53:02;1001.4661017403829;;;9.953125;100
61740;BME280;47645;45.288;12.038;2023-02-25T06:03:03;1001.2152942824858;;;9.968359375;100
61740;BME280;47645;45.288;12.038;2023-02-25T06:13:04;1001.1876347528945;;;9.9173828125;100
61740;BME280;47645;45.288;12.038;2023-02-25T06:23:04;1001.084136675873;;;10.0142578125;100
61740;BME280;47645;45.288;12.038;2023-02-25T06:33:04;1001.1175426332044;;;10.075390625;100
61740;BME280;47645;45.288;12.038;2023-02-25T06:43:05;1001.2247574828904;;;10.2587890625;100
61740;BME280;47645;45.288;12.038;2023-02-25T06:53:06;1001.2569507438448;;;10.2232421875;100
61740;BME280;47645;45.288;12.038;2023-02-25T07:03:06;1001.1847079112173;;;10.3251953125;100
61740;BME280;47645;45.288;12.038;2023-02-25T07:13:06;1001.0330468270582;;;10.4373046875;100
61740;BME280;47645;45.288;12.038;2023-02-25T07:23:06;1000.8832335261935;;;10.48828125;100
61740;BME280;47645;45.288;12.038;2023-02-25T07:33:07;1000.7314947223041;;;10.4984375;100
61740;BME280;47645;45.288;12.038;2023-02-25T07:43:07;1000.7685267698228;;;10.5443359375;100
61740;BME280;47645;45.288;12.038;2023-02-25T07:53:08;1000.9485859590969;;;10.5798828125;100
61740;BME280;47645;45.288;12.038;2023-02-25T08:03:08;1000.8007200326269;;;10.60546875;100
61740;BME280;47645;45.288;12.038;2023-02-25T08:13:09;1000.8060077978339;;;10.855078125;100
61740;BME280;47645;45.288;12.038;2023-02-25T08:23:09;1000.7689148896925;;;10.9265625;100
61740;BME280;47645;45.288;12.038;2023-02-25T08:33:10;1000.667898346127;;;11.0947265625;98.50418907510911
61740;BME280;47645;45.288;12.038;2023-02-25T08:43:10;1000.6685992388059;;;11.4056640625;99.96188122199842
61740;BME280;47645;45.288;12.038;2023-02-25T08:53:12;1000.7212781968286;;;11.6197265625;98.23359157144769
61740;BME280;47645;45.288;12.038;2023-02-25T09:03:11;1000.7183895460943;;;11.996875;97.10929076645073
61740;BME280;47645;45.288;12.038;2023-02-25T09:13:12;1000.791126144298;;;12.0630859375;96.52065165843693
61740;BME280;47645;45.288;12.038;2023-02-25T09:23:13;1000.6760824089681;;;12.6900390625;94.6386994596427
61740;BME280;47645;45.288;12.038;2023-02-25T09:33:13;1000.4864513291376;;;12.98046875;90.8924243750465
61740;BME280;47645;45.288;12.038;2023-02-25T09:43:19;1000.3204569443402;;;13.2658203125;89.83067446404542
61740;BME280;47645;45.288;12.038;2023-02-25T09:53:18;1000.2380771700774;;;13.530859375;85.97224360545728
61740;BME280;47645;45.288;12.038;2023-02-25T10:03:21;1000.2243351936625;;;13.9845703125;84.79630391004272
61740;BME280;47645;45.288;12.038;2023-02-25T10:13:24;1000.1321925492921;;;14.453515625;80.08615289243407
61740;BME280;47645;45.288;12.038;2023-02-25T10:23:26;1000.2596777352136;;;14.7388671875;77.27179382451754
61740;BME280;47645;45.288;12.038;2023-02-25T10:33:19;1000.1140691085176;;;15.1669921875;75.83339385915687
61740;BME280;47645;45.288;12.038;2023-02-25T10:43:20;1000.0590282591811;;;14.9580078125;74.60355459676684
61740;BME280;47645;45.288;12.038;2023-02-25T10:53:18;1000.0463253143774;;;15.1771484375;75.36134903999688
61740;BME280;47645;45.288;12.038;2023-02-25T11:03:22;999.9404420656242;;;16.38515625;70.61169124626022
61740;BME280;47645;45.288;12.038;2023-02-25T11:13:27;999.8921787597209;;;16.67578125;69.21584841885984
61740;BME280;47645;45.288;12.038;2023-02-25T11:23:22;999.7756149889624;;;16.905078125;72.84250171306951
61740;BME280;47645;45.288;12.038;2023-02-25T11:33:24;999.7466486980626;;;16.6400390625;75.22368398215153
61740;BME280;47645;45.288;12.038;2023-02-25T11:43:22;999.5601270314033;;;17.2873046875;71.53385417106198
61740;BME280;47645;45.288;12.038;2023-02-25T11:53:31;999.3626432457885;;;17.7818359375;68.87701152881252
61740;BME280;47645;45.288;12.038;2023-02-25T12:03:38;999.2407370187602;;;18.6380859375;66.5048590963786
61740;BME280;47645;45.288;12.038;2023-02-25T12:14:46;999.1902812339588;;;18.3169921875;66.57789177188334
61740;BME280;47645;45.288;12.038;2023-02-25T12:33:39;999.0232960175687;;;18.062109375;67.01595004878428
61740;BME280;47645;45.288;12.038;2023-02-25T12:43:33;998.9084442217847;;;17.1548828125;72.9856710620094
61740;BME280;47645;45.288;12.038;2023-02-25T12:53:35;998.8243435234909;;;16.594140625;77.91165755297021
61740;BME280;47645;45.288;12.038;2023-02-25T13:03:36;998.7514805985962;;;16.135546875;78.29264360293395
61740;BME280;47645;45.288;12.038;2023-02-25T13:13:51;998.693255587875;;;16.0998046875;80.11095584134034
61740;BME280;47645;45.288;12.038;2023-02-25T13:23:50;998.6511573553478;;;16.2119140625;79.33489871966846
61740;BME280;47645;45.288;12.038;2023-02-25T13:33:52;998.6261905670826;;;14.7388671875;82.7786538676195
61740;BME280;47645;45.288;12.038;2023-02-25T13:43:43;998.3912024817575;;;14.2802734375;86.58797433695665
61740;BME280;47645;45.288;12.038;2023-02-25T13:53:51;998.4120549134118;;;14.015234375;88.07692253327859
61740;BME280;47645;45.288;12.038;2023-02-25T14:03:52;998.3934851632957;;;14.239453125;86.33281007361727
61740;BME280;47645;45.288;12.038;2023-02-25T14:13:49;998.3228539759434;;;13.938671875;88.02315675583121
61740;BME280;47645;45.288;12.038;2023-02-25T14:23:43;998.1711495661757;;;14.5044921875;86.4162213964733
61740;BME280;47645;45.288;12.038;2023-02-25T14:33:51;998.0700225206667;;;14.336328125;84.76608344402017
61740;BME280;47645;45.288;12.038;2023-02-25T14:43:36;997.9924374758236;;;14.5962890625;86.11424676259738
61740;BME280;47645;45.288;12.038;2023-02-25T14:53:51;997.9967041570469;;;14.76953125;84.76152765747646
61740;BME280;47645;45.288;12.038;2023-02-25T15:14:09;997.9270077841323;;;14.7185546875;84.67845356200264
61740;BME280;47645;45.288;12.038;2023-02-25T15:23:49;997.992727164732;;;14.6216796875;84.3714362229547
61740;BME280;47645;45.288;12.038;2023-02-25T15:33:39;998.1263313409022;;;14.483984375;85.07328419521505
61740;BME280;47645;45.288;12.038;2023-02-25T15:43:42;998.1731509843348;;;14.376953125;85.83982112651292
61740;BME280;47645;45.288;12.038;2023-02-25T15:53:43;998.1984496332599;;;14.2189453125;86.74939476198928
61740;BME280;47645;45.288;12.038;2023-02-25T16:03:41;998.3031055831152;;;13.69921875;88.6947955755103
61740;BME280;47645;45.288;12.038;2023-02-25T16:13:44;998.412883748632;;;13.0517578125;92.4294237990478
61740;BME280;47645;45.288;12.038;2023-02-25T16:23:43;998.380768636141;;;12.3994140625;97.09323092332959
61740;BME280;47645;45.288;12.038;2023-02-25T16:33:47;998.3533868221529;;;12.5064453125;96.76931676827674
61740;BME280;47645;45.288;12.038;2023-02-25T16:43:43;998.3920271585384;;;12.45546875;97.64465495893522
61740;BME280;47645;45.288;12.038;2023-02-25T16:53:44;998.3203722280934;;;12.465625;98.04509957089235
61740;BME280;47645;45.288;12.038;2023-02-25T17:03:45;998.2320036747656;;;12.741015625;95.90715243185288
61740;BME280;47645;45.288;12.038;2023-02-25T17:13:48;998.1571569526027;;;12.7765625;95.0223987905439
61740;BME280;47645;45.288;12.038;2023-02-25T17:23:46;998.2291905985752;;;12.7154296875;94.53289775842362
61740;BME280;47645;45.288;12.038;2023-02-25T17:33:48;998.2770954058437;;;12.5625;95.49058251981657
61740;BME280;47645;45.288;12.038;2023-02-25T17:43:51;998.269455089518;;;12.526953125;94.81821871626144
61740;BME280;47645;45.288;12.038;2023-02-25T17:53:49;998.0729167725732;;;12.323046875;95.81296895008839
61740;BME280;47645;45.288;12.038;2023-02-25T18:03:51;997.9722518197111;;;12.0732421875;96.67710761478021
61740;BME280;47645;45.288;12.038;2023-02-25T18:13:49;998.2111208410171;;;11.3953125;100
61740;BME280;47645;45.288;12.038;2023-02-25T18:23:50;998.246005368249;;;10.83984375;100
61740;BME280;47645;45.288;12.038;2023-02-25T18:33:51;998.2596819155058;;;10.814453125;100
61740;BME280;47645;45.288;12.038;2023-02-25T18:43:54;998.200882184067;;;10.5595703125;100
61740;BME280;47645;45.288;12.038;2023-02-25T18:53:52;998.1184759521202;;;10.5953125;100
61740;BME280;47645;45.288;12.038;2023-02-25T19:03:53;997.9717001199886;;;10.6767578125;100
61740;BME280;47645;45.288;12.038;2023-02-25T19:13:53;997.9121846661758;;;10.62578125;100
61740;BME280;47645;45.288;12.038;2023-02-25T19:23:54;998.039186486901;;;10.6919921875;100
61740;BME280;47645;45.288;12.038;2023-02-25T19:33:54;997.8505177841246;;;10.6970703125;100
61740;BME280;47645;45.288;12.038;2023-02-25T19:43:54;997.7376173964517;;;10.6716796875;100
61740;BME280;47645;45.288;12.038;2023-02-25T19:53:55;997.6981324037306;;;10.83984375;100
61740;BME280;47645;45.288;12.038;2023-02-25T20:03:55;997.6093850382966;;;10.717578125;100
61740;BME280;47645;45.288;12.038;2023-02-25T20:13:56;997.5293063704166;;;11.0181640625;100
61740;BME280;47645;45.288;12.038;2023-02-25T20:23:57;997.6459264393729;;;10.824609375;100
61740;BME280;47645;45.288;12.038;2023-02-25T20:33:58;997.6464214862898;;;10.70234375;100
61740;BME280;47645;45.288;12.038;2023-02-25T20:43:58;997.6390011331032;;;10.50859375;100
61740;BME280;47645;45.288;12.038;2023-02-25T20:53:58;997.4472370704021;;;10.4779296875;100
61740;BME280;47645;45.288;12.038;2023-02-25T21:03:59;997.4150628642283;;;10.83984375;100
61740;BME280;47645;45.288;12.038;2023-02-25T21:13:59;997.3931526117595;;;10.814453125;100
61740;BME280;47645;45.288;12.038;2023-02-25T21:24:00;997.3057825056771;;;10.48828125;100
61740;BME280;47645;45.288;12.038;2023-02-25T21:34:02;997.234981005037;;;10.493359375;100
61740;BME280;47645;45.288;12.038;2023-02-25T21:44:01;997.1864079172058;;;10.5798828125;100
61740;BME280;47645;45.288;12.038;2023-02-25T21:54:01;997.0758614668736;;;10.50859375;100
61740;BME280;47645;45.288;12.038;2023-02-25T22:04:03;996.9006314229831;;;10.48828125;100
61740;BME280;47645;45.288;12.038;2023-02-25T22:14:04;996.7856704715192;;;10.41171875;100
61740;BME280;47645;45.288;12.038;2023-02-25T22:24:04;996.8156491543293;;;10.503515625;100
61740;BME280;47645;45.288;12.038;2023-02-25T22:34:05;996.7022378460301;;;10.2638671875;100
61740;BME280;47645;45.288;12.038;2023-02-25T22:44:04;996.4785756211272;;;10.39140625;100
61740;BME280;47645;45.288;12.038;2023-02-25T22:54:05;996.6085552593597;;;10.1568359375;100
61740;BME280;47645;45.288;12.038;2023-02-25T23:04:07;996.4446375823992;;;10.1671875;100
61740;BME280;47645;45.288;12.038;2023-02-25T23:14:05;996.4922493154553;;;10.279296875;100
61740;BME280;47645;45.288;12.038;2023-02-25T23:24:08;996.5326628823885;;;9.988671875;100
61740;BME280;47645;45.288;12.038;2023-02-25T23:34:11;996.5263372977173;;;9.9072265625;100
61740;BME280;47645;45.288;12.038;2023-02-25T23:44:09;996.5619752363552;;;9.764453125;100
61740;BME280;47645;45.288;12.038;2023-02-25T23:54:12;996.5188641408599;;;9.7951171875;100
